createdAt,value
2022-08-10T00:00:23.216Z,24.31
2022-08-10T00:02:59.195Z,24.25
2022-08-10T00:05:43.492Z,24.17
2022-08-10T00:08:26.198Z,24.26
2022-08-10T00:10:59.137Z,24.21
2022-08-10T00:13:32.105Z,24.22
2022-08-10T00:16:05.489Z,24.20
2022-08-10T00:18:39.568Z,24.10
2022-08-10T00:21:12.363Z,24.03
2022-08-10T00:23:45.085Z,24.09
2022-08-10T00:26:17.912Z,23.95
2022-08-10T00:28:51.213Z,23.91
2022-08-10T00:31:23.911Z,23.84
2022-08-10T00:33:58.051Z,23.87
2022-08-10T00:36:31.886Z,23.84
2022-08-10T00:39:07.947Z,23.84
2022-08-10T00:41:44.688Z,23.90
2022-08-10T00:44:17.463Z,23.90
2022-08-10T00:46:50.172Z,23.79
2022-08-10T00:49:24.724Z,23.69
2022-08-10T00:51:57.710Z,23.80
2022-08-10T00:54:30.601Z,23.70
2022-08-10T00:57:17.999Z,23.74
2022-08-10T00:59:59.094Z,23.65
2022-08-10T01:02:33.577Z,23.59
2022-08-10T01:05:10.117Z,23.54
2022-08-10T01:08:10.252Z,23.54
2022-08-10T01:10:48.644Z,23.52
2022-08-10T01:13:27.328Z,23.41
2022-08-10T01:16:05.556Z,23.51
2022-08-10T01:18:44.485Z,23.47
2022-08-10T01:21:59.789Z,23.31
2022-08-10T01:25:06.807Z,23.34
2022-08-10T01:27:52.868Z,23.28
2022-08-10T01:30:31.177Z,23.24
2022-08-10T01:33:08.842Z,23.26
2022-08-10T01:35:48.284Z,23.28
2022-08-10T01:38:25.405Z,23.26
2022-08-10T01:41:06.114Z,23.11
2022-08-10T01:43:42.781Z,23.16
2022-08-10T01:46:20.249Z,23.08
2022-08-10T01:48:56.139Z,23.08
2022-08-10T01:51:33.721Z,23.01
2022-08-10T01:54:12.806Z,23.00
2022-08-10T01:56:49.586Z,23.01
2022-08-10T01:59:26.930Z,22.94
2022-08-10T02:02:05.171Z,22.89
2022-08-10T02:04:41.393Z,22.91
2022-08-10T02:07:17.737Z,22.95
2022-08-10T02:09:53.800Z,22.91
2022-08-10T02:12:31.049Z,22.89
2022-08-10T02:15:07.983Z,22.89
2022-08-10T02:17:57.545Z,22.83
2022-08-10T02:20:36.064Z,22.83
2022-08-10T02:23:13.881Z,22.76
2022-08-10T02:25:48.314Z,22.69
2022-08-10T02:28:30.404Z,22.77
2022-08-10T02:31:11.491Z,22.69
2022-08-10T02:33:56.633Z,22.63
2022-08-10T02:36:35.205Z,22.63
2022-08-10T02:39:09.153Z,22.57
2022-08-10T02:45:13.775Z,22.63
2022-08-10T02:45:24.427Z,22.55
2022-08-10T02:47:50.723Z,22.60
2022-08-10T02:50:29.873Z,22.59
2022-08-10T02:53:06.233Z,22.50
2022-08-10T02:55:45.949Z,22.61
2022-08-10T02:58:27.090Z,22.54
2022-08-10T03:01:04.764Z,22.52
2022-08-10T03:03:43.893Z,22.46
2022-08-10T03:06:21.799Z,22.50
2022-08-10T03:08:56.242Z,22.49
2022-08-10T03:12:35.733Z,22.39
2022-08-10T03:14:26.951Z,22.38
2022-08-10T03:17:01.890Z,22.40
2022-08-10T03:20:33.366Z,22.34
2022-08-10T03:22:31.527Z,22.31
2022-08-10T03:25:05.089Z,22.39
2022-08-10T03:27:38.194Z,22.23
2022-08-10T03:30:29.343Z,22.21
2022-08-10T03:33:06.177Z,22.25
2022-08-10T03:35:39.061Z,22.26
2022-08-10T03:38:13.165Z,22.16
2022-08-10T03:40:49.033Z,22.12
2022-08-10T03:43:23.444Z,22.06
2022-08-10T03:46:00.143Z,22.05
2022-08-10T03:48:49.228Z,22.00
2022-08-10T03:51:24.224Z,21.96
2022-08-10T03:54:05.065Z,21.96
2022-08-10T03:56:41.824Z,22.01
2022-08-10T03:59:17.707Z,21.99
2022-08-10T04:02:41.989Z,21.94
2022-08-10T04:04:44.885Z,21.83
2022-08-10T04:07:17.772Z,21.88
2022-08-10T04:09:56.002Z,21.90
2022-08-10T04:12:29.100Z,21.85
2022-08-10T04:15:01.860Z,21.80
2022-08-10T04:18:04.121Z,21.79
2022-08-10T04:20:34.878Z,21.78
2022-08-10T04:23:12.116Z,21.70
2022-08-10T04:25:46.562Z,21.70
2022-08-10T04:28:20.233Z,21.73
2022-08-10T04:30:55.696Z,21.71
2022-08-10T04:33:31.056Z,21.74
2022-08-10T04:36:05.865Z,21.57
2022-08-10T04:38:40.311Z,21.68
2022-08-10T04:41:15.258Z,21.63
2022-08-10T04:43:48.169Z,21.61
2022-08-10T04:46:56.061Z,21.57
2022-08-10T04:49:54.283Z,21.66
2022-08-10T04:52:07.621Z,21.53
2022-08-10T04:54:40.316Z,21.48
2022-08-10T04:57:15.730Z,21.63
2022-08-10T04:59:48.590Z,21.61
2022-08-10T05:02:31.026Z,21.58
2022-08-10T05:05:04.360Z,21.60
2022-08-10T05:07:51.483Z,21.42
2022-08-10T05:10:27.068Z,21.42
2022-08-10T05:13:01.111Z,21.40
2022-08-10T05:15:33.818Z,21.48
2022-08-10T05:18:10.039Z,21.45
2022-08-10T05:20:47.342Z,21.41
2022-08-10T05:23:22.916Z,21.46
2022-08-10T05:25:55.607Z,21.35
2022-08-10T05:28:30.786Z,21.29
2022-08-10T05:31:08.206Z,21.29
2022-08-10T05:33:40.997Z,21.31
2022-08-10T05:36:14.779Z,21.34
2022-08-10T05:38:48.412Z,21.34
2022-08-10T05:41:21.681Z,21.35
2022-08-10T05:43:55.730Z,21.29
2022-08-10T05:46:28.446Z,21.31
2022-08-10T05:49:01.971Z,21.29
2022-08-10T05:51:36.430Z,21.32
2022-08-10T05:54:14.931Z,21.32
2022-08-10T05:56:53.235Z,21.30
2022-08-10T06:00:11.251Z,21.28
2022-08-10T06:02:35.363Z,21.26
2022-08-10T06:05:10.694Z,21.29
2022-08-10T06:07:48.149Z,21.34
2022-08-10T06:10:31.122Z,21.35
2022-08-10T06:13:34.364Z,21.32
2022-08-10T06:16:11.959Z,21.38
2022-08-10T06:18:45.017Z,21.29
2022-08-10T06:21:18.830Z,21.34
2022-08-10T06:23:53.915Z,21.33
2022-08-10T06:26:26.619Z,21.32
2022-08-10T06:29:15.891Z,21.35
2022-08-10T06:31:52.170Z,21.41
2022-08-10T06:34:28.665Z,21.44
2022-08-10T06:37:04.124Z,21.45
2022-08-10T06:39:37.572Z,21.32
2022-08-10T06:42:18.055Z,21.44
2022-08-10T06:45:01.516Z,21.57
2022-08-10T06:47:42.489Z,21.63
2022-08-10T06:50:44.979Z,21.67
2022-08-10T06:53:15.014Z,21.74
2022-08-10T06:55:57.137Z,21.78
2022-08-10T06:58:35.111Z,21.83
2022-08-10T07:01:13.293Z,21.89
2022-08-10T07:03:54.823Z,22.00
2022-08-10T07:06:29.512Z,22.06
2022-08-10T07:09:03.635Z,22.17
2022-08-10T07:11:37.846Z,22.22
2022-08-10T07:14:17.198Z,22.36
2022-08-10T07:16:52.040Z,22.43
2022-08-10T07:19:28.175Z,22.54
2022-08-10T07:22:02.553Z,22.60
2022-08-10T07:24:36.630Z,22.65
2022-08-10T07:27:10.767Z,22.75
2022-08-10T07:29:54.510Z,22.81
2022-08-10T07:32:28.325Z,22.88
2022-08-10T07:35:03.883Z,22.96
2022-08-10T07:37:37.887Z,23.04
2022-08-10T07:40:13.942Z,23.12
2022-08-10T07:42:49.195Z,23.17
2022-08-10T07:45:22.275Z,23.29
2022-08-10T07:48:03.686Z,23.38
2022-08-10T07:50:42.297Z,23.48
2022-08-10T07:53:24.097Z,23.59
2022-08-10T07:56:03.587Z,23.70
2022-08-10T07:58:51.820Z,23.81
2022-08-10T08:01:32.898Z,23.73
2022-08-10T08:04:11.678Z,24.03
2022-08-10T08:06:47.942Z,24.18
2022-08-10T08:09:22.358Z,24.36
2022-08-10T08:11:56.500Z,24.49
2022-08-10T08:14:30.867Z,24.65
2022-08-10T08:17:03.834Z,24.77
2022-08-10T08:19:45.843Z,24.95
2022-08-10T08:24:14.654Z,25.05
2022-08-10T08:25:21.096Z,25.10
2022-08-10T08:27:56.298Z,25.32
2022-08-10T08:30:30.081Z,25.48
2022-08-10T08:33:04.058Z,25.58
2022-08-10T08:35:37.239Z,25.65
2022-08-10T08:38:33.505Z,25.81
2022-08-10T08:41:37.355Z,25.92
2022-08-10T08:44:16.394Z,26.03
2022-08-10T08:48:04.720Z,26.20
2022-08-10T08:50:20.973Z,26.38
2022-08-10T08:53:21.396Z,26.46
2022-08-10T08:56:06.992Z,26.53
2022-08-10T08:58:52.507Z,26.60
2022-08-10T09:01:42.379Z,26.83
2022-08-10T09:04:28.557Z,27.16
2022-08-10T09:07:59.212Z,27.30
2022-08-10T09:10:25.721Z,27.61
2022-08-10T09:13:07.851Z,27.63
2022-08-10T09:15:47.890Z,27.67
2022-08-10T09:18:26.922Z,27.62
2022-08-10T09:21:05.198Z,27.83
2022-08-10T09:24:04.919Z,27.93
2022-08-10T09:26:46.662Z,28.06
2022-08-10T09:29:26.844Z,28.13
2022-08-10T09:36:15.445Z,28.41
2022-08-10T09:36:25.986Z,28.58
2022-08-10T09:38:12.504Z,28.85
2022-08-10T09:41:02.256Z,28.45
2022-08-10T09:43:44.658Z,27.97
2022-08-10T09:46:33.361Z,27.80
2022-08-10T09:49:17.403Z,28.50
2022-08-10T09:52:13.913Z,28.96
2022-08-10T09:55:01.164Z,28.56
2022-08-10T09:57:41.348Z,29.13
2022-08-10T10:00:20.821Z,29.52
2022-08-10T10:03:09.474Z,28.91
2022-08-10T10:05:50.295Z,28.87
2022-08-10T10:08:31.232Z,29.53
2022-08-10T10:11:10.778Z,29.21
2022-08-10T10:14:03.353Z,29.59
2022-08-10T10:16:56.393Z,29.84
2022-08-10T10:19:51.458Z,30.01
2022-08-10T10:22:41.803Z,29.88
2022-08-10T10:25:22.980Z,30.35
2022-08-10T10:28:10.738Z,30.33
2022-08-10T10:30:56.780Z,29.99
2022-08-10T10:33:36.882Z,30.37
2022-08-10T10:36:12.077Z,30.49
2022-08-10T10:38:46.583Z,30.19
2022-08-10T10:41:55.973Z,30.91
2022-08-10T10:44:41.937Z,31.21
2022-08-10T10:47:34.098Z,31.49
2022-08-10T10:50:13.230Z,31.36
2022-08-10T10:52:58.685Z,31.12
2022-08-10T10:56:13.896Z,31.01
2022-08-10T10:58:37.903Z,31.16
2022-08-10T11:01:16.733Z,31.79
2022-08-10T11:04:04.855Z,31.79
2022-08-10T11:06:50.402Z,31.35
2022-08-10T11:10:04.772Z,31.39
2022-08-10T11:12:30.458Z,32.24
2022-08-10T11:15:10.006Z,32.38
2022-08-10T11:17:49.773Z,32.57
2022-08-10T11:20:27.713Z,32.58
2022-08-10T11:23:14.715Z,32.47
2022-08-10T11:25:56.887Z,32.96
2022-08-10T11:28:38.096Z,33.13
2022-08-10T11:31:18.838Z,32.48
2022-08-10T11:34:47.021Z,33.30
2022-08-10T11:36:59.998Z,32.68
2022-08-10T11:39:48.827Z,32.53
2022-08-10T11:42:35.909Z,32.48
2022-08-10T11:45:13.377Z,33.26
2022-08-10T11:47:51.594Z,32.62
2022-08-10T11:50:27.072Z,33.24
2022-08-10T11:53:10.682Z,33.26
2022-08-10T11:55:49.284Z,33.67
2022-08-10T11:58:43.114Z,33.48
2022-08-10T12:01:20.839Z,33.42
2022-08-10T12:03:54.663Z,33.19
2022-08-10T12:06:54.101Z,33.26
2022-08-10T12:10:09.094Z,33.26
2022-08-10T12:12:17.768Z,33.07
2022-08-10T12:14:58.305Z,33.50
2022-08-10T12:17:35.375Z,33.84
2022-08-10T12:20:11.187Z,33.45
2022-08-10T12:22:49.819Z,33.14
2022-08-10T12:25:55.807Z,34.02
2022-08-10T12:28:33.255Z,34.72
2022-08-10T12:31:24.225Z,34.99
2022-08-10T12:34:15.193Z,35.13
2022-08-10T12:36:58.619Z,34.89
2022-08-10T12:39:38.496Z,34.78
2022-08-10T12:42:39.391Z,33.92
2022-08-10T12:45:18.158Z,34.32
2022-08-10T12:48:06.416Z,35.03
2022-08-10T12:50:43.960Z,34.91
2022-08-10T12:53:26.330Z,35.63
2022-08-10T12:56:01.672Z,35.07
2022-08-10T12:58:59.245Z,34.92
2022-08-10T13:02:06.163Z,34.50
2022-08-10T13:04:30.646Z,35.08
2022-08-10T13:07:05.957Z,33.97
2022-08-10T13:09:56.318Z,35.11
2022-08-10T13:12:38.798Z,35.48
2022-08-10T13:15:25.440Z,35.95
2022-08-10T13:18:18.265Z,36.02
2022-08-10T13:20:55.876Z,34.99
2022-08-10T13:23:31.828Z,35.17
2022-08-10T13:26:05.834Z,35.67
2022-08-10T13:28:47.173Z,36.09
2022-08-10T13:32:03.625Z,35.60
2022-08-10T13:34:41.300Z,36.35
2022-08-10T13:37:20.251Z,35.70
2022-08-10T13:39:59.513Z,36.05
2022-08-10T13:42:37.693Z,36.71
2022-08-10T13:45:14.409Z,36.62
2022-08-10T13:47:50.694Z,36.64
2022-08-10T13:50:34.543Z,36.39
2022-08-10T13:53:15.866Z,36.37
2022-08-10T13:55:54.515Z,36.46
2022-08-10T13:58:31.954Z,37.06
2022-08-10T14:01:11.183Z,36.54
2022-08-10T14:03:45.612Z,36.81
2022-08-10T14:06:23.636Z,36.39
2022-08-10T14:09:06.934Z,37.04
2022-08-10T14:11:43.055Z,37.02
2022-08-10T14:14:19.102Z,36.78
2022-08-10T14:16:52.685Z,36.58
2022-08-10T14:19:27.693Z,36.90
2022-08-10T14:22:02.765Z,37.08
2022-08-10T14:24:35.735Z,36.20
2022-08-10T14:27:11.470Z,37.00
2022-08-10T14:29:46.367Z,37.16
2022-08-10T14:32:22.820Z,37.30
2022-08-10T14:36:16.501Z,37.39
2022-08-10T14:37:58.477Z,36.78
2022-08-10T14:40:38.483Z,37.07
2022-08-10T14:43:16.253Z,37.36
2022-08-10T14:46:05.706Z,37.40
2022-08-10T14:48:41.857Z,37.23
2022-08-10T14:51:17.763Z,36.82
2022-08-10T14:53:55.438Z,36.52
2022-08-10T14:56:31.322Z,36.96
2022-08-10T14:59:07.625Z,36.84
2022-08-10T15:02:01.342Z,37.12
2022-08-10T15:04:38.613Z,37.01
2022-08-10T15:07:20.675Z,35.81
2022-08-10T15:10:00.884Z,36.45
2022-08-10T15:12:38.638Z,37.09
2022-08-10T15:15:18.008Z,37.21
2022-08-10T15:18:02.800Z,36.64
2022-08-10T15:20:37.929Z,37.19
2022-08-10T15:23:30.073Z,36.55
2022-08-10T15:26:11.093Z,37.27
2022-08-10T15:29:23.859Z,37.04
2022-08-10T15:32:00.016Z,36.69
2022-08-10T15:34:52.829Z,37.08
2022-08-10T15:37:39.211Z,37.13
2022-08-10T15:40:22.577Z,36.57
2022-08-10T15:43:05.574Z,37.03
2022-08-10T15:46:02.322Z,37.03
2022-08-10T15:48:40.152Z,36.99
2022-08-10T15:51:21.021Z,36.95
2022-08-10T15:54:01.895Z,36.78
2022-08-10T15:56:43.171Z,36.73
2022-08-10T15:59:27.928Z,36.50
2022-08-10T16:02:15.661Z,36.53
2022-08-10T16:04:53.254Z,36.66
2022-08-10T16:07:50.266Z,36.83
2022-08-10T16:10:29.405Z,36.79
2022-08-10T16:13:59.608Z,36.23
2022-08-10T16:16:05.867Z,36.34
2022-08-10T16:18:40.480Z,35.46
2022-08-10T16:21:18.308Z,35.89
2022-08-10T16:24:02.153Z,36.36
2022-08-10T16:26:55.469Z,36.16
2022-08-10T16:29:28.977Z,36.06
2022-08-10T16:32:05.343Z,35.63
2022-08-10T16:34:40.150Z,35.69
2022-08-10T16:37:16.144Z,35.36
2022-08-10T16:39:59.823Z,35.44
2022-08-10T16:42:35.822Z,35.25
2022-08-10T16:45:11.538Z,35.14
2022-08-10T16:47:48.926Z,34.96
2022-08-10T16:50:26.269Z,34.85
2022-08-10T16:53:02.305Z,34.76
2022-08-10T16:55:48.414Z,34.76
2022-08-10T16:58:27.351Z,34.44
2022-08-10T17:01:03.739Z,34.58
2022-08-10T17:04:06.513Z,33.54
2022-08-10T17:06:44.160Z,33.57
2022-08-10T17:09:19.835Z,33.72
2022-08-10T17:11:54.590Z,33.61
2022-08-10T17:14:29.910Z,32.92
2022-08-10T17:17:07.072Z,33.06
2022-08-10T17:19:44.945Z,33.16
2022-08-10T17:22:21.104Z,33.50
2022-08-10T17:24:58.339Z,32.07
2022-08-10T17:28:04.417Z,32.99
2022-08-10T17:30:34.374Z,32.55
2022-08-10T17:33:23.383Z,32.40
2022-08-10T17:36:03.729Z,32.98
2022-08-10T17:38:38.643Z,31.39
2022-08-10T17:41:13.779Z,31.54
2022-08-10T17:44:01.601Z,32.03
2022-08-10T17:46:38.741Z,31.77
2022-08-10T17:49:14.430Z,31.37
2022-08-10T17:51:54.413Z,32.23
2022-08-10T17:54:31.166Z,32.02
2022-08-10T17:57:10.618Z,31.49
2022-08-10T17:59:44.303Z,30.79
2022-08-10T18:02:20.593Z,31.50
2022-08-10T18:04:57.386Z,31.46
2022-08-10T18:07:35.363Z,31.74
2022-08-10T18:10:12.194Z,31.39
2022-08-10T18:12:48.328Z,30.91
2022-08-10T18:15:23.419Z,31.30
2022-08-10T18:18:00.499Z,30.66
2022-08-10T18:20:36.151Z,30.90
2022-08-10T18:23:11.211Z,30.98
2022-08-10T18:25:46.674Z,31.15
2022-08-10T18:28:21.031Z,31.13
2022-08-10T18:30:55.656Z,31.30
2022-08-10T18:33:33.526Z,31.22
2022-08-10T18:36:10.117Z,31.01
2022-08-10T18:38:47.096Z,30.99
2022-08-10T18:41:23.080Z,30.38
2022-08-10T18:44:07.647Z,30.57
2022-08-10T18:46:47.137Z,30.51
2022-08-10T18:49:29.990Z,30.56
2022-08-10T18:52:04.400Z,30.53
2022-08-10T18:54:45.682Z,29.96
2022-08-10T18:57:30.032Z,30.33
2022-08-10T19:00:13.707Z,30.20
2022-08-10T19:03:14.663Z,30.31
2022-08-10T19:05:58.703Z,30.38
2022-08-10T19:08:49.496Z,30.37
2022-08-10T19:11:38.863Z,29.71
2022-08-10T19:14:17.626Z,30.09
2022-08-10T19:16:58.804Z,30.06
2022-08-10T19:19:41.033Z,30.11
2022-08-10T19:22:22.659Z,30.05
2022-08-10T19:25:02.312Z,29.57
2022-08-10T19:27:57.792Z,29.64
2022-08-10T19:30:43.482Z,29.67
2022-08-10T19:33:29.250Z,29.74
2022-08-10T19:36:13.106Z,29.62
2022-08-10T19:38:53.622Z,29.59
2022-08-10T19:41:32.785Z,29.36
2022-08-10T19:44:27.254Z,29.38
2022-08-10T19:47:06.584Z,29.43
2022-08-10T19:49:47.310Z,29.36
2022-08-10T19:52:28.019Z,29.14
2022-08-10T19:58:16.421Z,29.07
2022-08-10T20:00:58.587Z,29.06
2022-08-10T20:03:41.506Z,28.83
2022-08-10T20:06:20.420Z,28.76
2022-08-10T20:08:57.810Z,28.64
2022-08-10T20:11:45.971Z,28.62
2022-08-10T20:14:23.665Z,28.61
2022-08-10T20:17:03.324Z,28.53
2022-08-10T20:19:52.546Z,28.25
2022-08-10T20:22:30.821Z,28.44
2022-08-10T20:25:14.062Z,28.20
2022-08-10T20:28:01.280Z,28.33
2022-08-10T20:30:36.995Z,28.24
2022-08-10T20:33:18.263Z,27.89
2022-08-10T20:35:56.740Z,28.06
2022-08-10T20:38:35.013Z,27.85
2022-08-10T20:41:17.253Z,28.06
2022-08-10T20:44:01.276Z,28.00
2022-08-10T20:46:43.084Z,27.60
2022-08-10T20:49:29.683Z,27.84
2022-08-10T20:52:04.147Z,28.46
2022-08-10T20:54:43.060Z,28.53
2022-08-10T20:57:55.222Z,28.47
2022-08-10T21:00:23.340Z,28.55
2022-08-10T21:03:15.713Z,28.55
2022-08-10T21:06:09.787Z,28.53
2022-08-10T21:08:50.362Z,28.51
2022-08-10T21:11:35.569Z,28.47
2022-08-10T21:14:29.377Z,28.46
2022-08-10T21:17:17.006Z,28.43
2022-08-10T21:20:09.093Z,28.24
2022-08-10T21:22:47.868Z,28.27
2022-08-10T21:25:29.387Z,28.18
2022-08-10T21:28:30.259Z,28.12
2022-08-10T21:31:22.011Z,28.12
2022-08-10T21:34:11.424Z,28.03
2022-08-10T21:36:52.960Z,27.88
2022-08-10T21:39:50.645Z,27.93
2022-08-10T21:42:52.919Z,27.93
2022-08-10T21:45:58.964Z,27.97
2022-08-10T21:48:59.065Z,27.76
2022-08-10T21:52:01.635Z,27.70
2022-08-10T21:55:03.581Z,27.67
2022-08-10T21:58:05.083Z,27.60
2022-08-10T22:01:00.603Z,27.61
2022-08-10T22:03:54.062Z,27.43
2022-08-10T22:06:52.344Z,27.50
2022-08-10T22:09:47.648Z,27.46
2022-08-10T22:12:51.267Z,27.51
2022-08-10T22:15:42.507Z,27.33
2022-08-10T22:19:01.939Z,27.24
2022-08-10T22:22:27.015Z,27.24
2022-08-10T22:25:30.127Z,27.19
2022-08-10T22:28:25.319Z,27.11
2022-08-10T22:31:32.328Z,27.06
2022-08-10T22:34:33.595Z,27.12
2022-08-10T22:37:42.202Z,27.02
2022-08-10T22:40:37.733Z,26.94
2022-08-10T22:43:38.630Z,26.94
2022-08-10T22:46:36.721Z,26.93
2022-08-10T22:49:09.177Z,26.93
2022-08-10T22:51:54.548Z,26.82
2022-08-10T22:54:51.235Z,26.78
2022-08-10T22:57:42.532Z,26.74
2022-08-10T23:00:19.408Z,26.69
2022-08-10T23:02:55.865Z,26.68
2022-08-10T23:05:33.354Z,26.66
2022-08-10T23:08:19.568Z,26.72
2022-08-10T23:11:07.510Z,26.64
2022-08-10T23:13:44.498Z,26.53
2022-08-10T23:16:39.755Z,26.53
2022-08-10T23:19:18.668Z,26.46
2022-08-10T23:22:03.840Z,26.50
2022-08-10T23:24:42.810Z,26.37
2022-08-10T23:27:37.306Z,26.31
2022-08-10T23:30:18.104Z,26.26
2022-08-10T23:33:00.677Z,26.33
2022-08-10T23:36:28.094Z,26.32
2022-08-10T23:38:41.980Z,26.25
2022-08-10T23:41:14.805Z,26.29
2022-08-10T23:44:03.763Z,26.24
2022-08-10T23:46:41.022Z,26.22
2022-08-10T23:49:15.663Z,26.18
2022-08-10T23:51:55.148Z,26.12
2022-08-10T23:54:30.742Z,26.02
2022-08-10T23:57:04.418Z,26.04
2022-08-10T23:59:38.428Z,25.93
